sensor_id;sensor_type;location;lat;lon;timestamp;pressure;altitude;pressure_sealevel;temperature;humidity
23635;BME280;11994;51.038;16.974;2023-04-15T00:01:53;98800.66;;;11.02;100.00
23635;BME280;11994;51.038;16.974;2023-04-15T00:04:18;98796.49;;;11.01;100.00
23635;BME280;11994;51.038;16.974;2023-04-15T00:06:49;98791.23;;;11.01;100.00
23635;BME280;11994;51.038;16.974;2023-04-15T00:09:14;98793.27;;;11.02;100.00
23635;BME280;11994;51.038;16.974;2023-04-15T00:11:39;98787.31;;;11.03;100.00
23635;BME280;11994;51.038;16.974;2023-04-15T00:14:04;98791.65;;;11.04;100.00
23635;BME280;11994;51.038;16.974;2023-04-15T00:16:31;98790.14;;;11.06;100.00
23635;BME280;11994;51.038;16.974;2023-04-15T00:18:56;98791.33;;;11.07;100.00
23635;BME280;11994;51.038;16.974;2023-04-15T00:21:21;98792.23;;;11.10;100.00
23635;BME280;11994;51.038;16.974;2023-04-15T00:23:47;98793.58;;;11.11;100.00
23635;BME280;11994;51.038;16.974;2023-04-15T00:26:16;98792.36;;;11.11;100.00
23635;BME280;11994;51.038;16.974;2023-04-15T00:28:43;98788.02;;;11.10;100.00
23635;BME280;11994;51.038;16.974;2023-04-15T00:31:08;98790.17;;;11.09;100.00
23635;BME280;11994;51.038;16.974;2023-04-15T00:33:34;98787.73;;;11.08;100.00
23635;BME280;11994;51.038;16.974;2023-04-15T00:36:00;98793.02;;;11.08;100.00
23635;BME280;11994;51.038;16.974;2023-04-15T00:38:27;98797.37;;;11.08;100.00
23635;BME280;11994;51.038;16.974;2023-04-15T00:40:52;98790.35;;;11.08;100.00
23635;BME280;11994;51.038;16.974;2023-04-15T00:43:18;98790.80;;;11.10;100.00
23635;BME280;11994;51.038;16.974;2023-04-15T00:45:43;98793.20;;;11.11;100.00
23635;BME280;11994;51.038;16.974;2023-04-15T00:48:08;98798.21;;;11.13;100.00
23635;BME280;11994;51.038;16.974;2023-04-15T00:50:34;98792.73;;;11.13;100.00
23635;BME280;11994;51.038;16.974;2023-04-15T00:52:59;98794.40;;;11.15;100.00
23635;BME280;11994;51.038;16.974;2023-04-15T00:55:25;98800.88;;;11.15;100.00
23635;BME280;11994;51.038;16.974;2023-04-15T00:57:50;98801.08;;;11.14;100.00
23635;BME280;11994;51.038;16.974;2023-04-15T01:00:16;98800.61;;;11.13;100.00
23635;BME280;11994;51.038;16.974;2023-04-15T01:02:42;98804.34;;;11.12;100.00
23635;BME280;11994;51.038;16.974;2023-04-15T01:05:07;98801.17;;;11.13;100.00
23635;BME280;11994;51.038;16.974;2023-04-15T01:07:33;98798.16;;;11.13;100.00
23635;BME280;11994;51.038;16.974;2023-04-15T01:09:58;98797.45;;;11.14;100.00
23635;BME280;11994;51.038;16.974;2023-04-15T01:12:25;98799.55;;;11.14;100.00
23635;BME280;11994;51.038;16.974;2023-04-15T01:14:51;98795.92;;;11.13;100.00
23635;BME280;11994;51.038;16.974;2023-04-15T01:17:17;98801.75;;;11.11;100.00
23635;BME280;11994;51.038;16.974;2023-04-15T01:19:43;98800.11;;;11.09;100.00
23635;BME280;11994;51.038;16.974;2023-04-15T01:22:08;98798.21;;;11.09;100.00
23635;BME280;11994;51.038;16.974;2023-04-15T01:24:34;98795.77;;;11.08;100.00
23635;BME280;11994;51.038;16.974;2023-04-15T01:26:59;98793.43;;;11.10;100.00
23635;BME280;11994;51.038;16.974;2023-04-15T01:29:25;98791.13;;;11.10;100.00
23635;BME280;11994;51.038;16.974;2023-04-15T01:31:51;98797.20;;;11.12;100.00
23635;BME280;11994;51.038;16.974;2023-04-15T01:34:17;98796.89;;;11.11;100.00
23635;BME280;11994;51.038;16.974;2023-04-15T01:36:43;98799.37;;;11.10;100.00
23635;BME280;11994;51.038;16.974;2023-04-15T01:39:08;98803.95;;;11.09;100.00
23635;BME280;11994;51.038;16.974;2023-04-15T01:41:33;98802.04;;;11.09;100.00
23635;BME280;11994;51.038;16.974;2023-04-15T01:43:59;98808.98;;;11.10;100.00
23635;BME280;11994;51.038;16.974;2023-04-15T01:46:24;98812.48;;;11.10;100.00
23635;BME280;11994;51.038;16.974;2023-04-15T01:48:50;98814.98;;;11.09;100.00
23635;BME280;11994;51.038;16.974;2023-04-15T01:51:15;98813.42;;;11.09;100.00
23635;BME280;11994;51.038;16.974;2023-04-15T01:53:41;98815.30;;;11.10;100.00
23635;BME280;11994;51.038;16.974;2023-04-15T01:56:06;98817.54;;;11.11;100.00
23635;BME280;11994;51.038;16.974;2023-04-15T01:58:32;98816.61;;;11.12;100.00
23635;BME280;11994;51.038;16.974;2023-04-15T02:00:57;98808.29;;;11.10;100.00
23635;BME280;11994;51.038;16.974;2023-04-15T02:03:23;98802.55;;;11.09;100.00
23635;BME280;11994;51.038;16.974;2023-04-15T02:05:49;98805.91;;;11.09;100.00
23635;BME280;11994;51.038;16.974;2023-04-15T02:08:15;98804.02;;;11.08;100.00
23635;BME280;11994;51.038;16.974;2023-04-15T02:10:40;98806.08;;;11.09;100.00
23635;BME280;11994;51.038;16.974;2023-04-15T02:13:05;98812.48;;;11.11;100.00
23635;BME280;11994;51.038;16.974;2023-04-15T02:15:31;98813.09;;;11.12;100.00
23635;BME280;11994;51.038;16.974;2023-04-15T02:17:57;98813.79;;;11.12;100.00
23635;BME280;11994;51.038;16.974;2023-04-15T02:20:24;98819.69;;;11.09;100.00
23635;BME280;11994;51.038;16.974;2023-04-15T02:22:50;98818.61;;;11.07;100.00
23635;BME280;11994;51.038;16.974;2023-04-15T02:25:16;98820.38;;;11.06;100.00
23635;BME280;11994;51.038;16.974;2023-04-15T02:27:41;98829.93;;;11.04;100.00
23635;BME280;11994;51.038;16.974;2023-04-15T02:30:08;98828.98;;;11.02;100.00
23635;BME280;11994;51.038;16.974;2023-04-15T02:32:34;98830.88;;;10.99;100.00
23635;BME280;11994;51.038;16.974;2023-04-15T02:35:03;98834.85;;;10.97;100.00
23635;BME280;11994;51.038;16.974;2023-04-15T02:37:29;98835.69;;;10.93;100.00
23635;BME280;11994;51.038;16.974;2023-04-15T02:39:55;98833.47;;;10.92;100.00
23635;BME280;11994;51.038;16.974;2023-04-15T02:42:21;98834.77;;;10.91;100.00
23635;BME280;11994;51.038;16.974;2023-04-15T02:44:46;98841.85;;;10.89;100.00
23635;BME280;11994;51.038;16.974;2023-04-15T02:47:11;98847.67;;;10.88;100.00
23635;BME280;11994;51.038;16.974;2023-04-15T02:49:37;98846.77;;;10.85;100.00
23635;BME280;11994;51.038;16.974;2023-04-15T02:52:02;98846.81;;;10.80;100.00
23635;BME280;11994;51.038;16.974;2023-04-15T02:54:27;98847.76;;;10.75;100.00
23635;BME280;11994;51.038;16.974;2023-04-15T02:56:52;98846.73;;;10.71;100.00
23635;BME280;11994;51.038;16.974;2023-04-15T02:59:20;98847.93;;;10.68;100.00
23635;BME280;11994;51.038;16.974;2023-04-15T03:01:45;98850.98;;;10.62;100.00
23635;BME280;11994;51.038;16.974;2023-04-15T03:04:10;98852.99;;;10.56;100.00
23635;BME280;11994;51.038;16.974;2023-04-15T03:06:36;98852.59;;;10.50;100.00
23635;BME280;11994;51.038;16.974;2023-04-15T03:09:01;98859.05;;;10.47;100.00
23635;BME280;11994;51.038;16.974;2023-04-15T03:11:30;98869.55;;;10.42;100.00
23635;BME280;11994;51.038;16.974;2023-04-15T03:13:55;98874.61;;;10.38;100.00
23635;BME280;11994;51.038;16.974;2023-04-15T03:16:21;98883.64;;;10.32;100.00
23635;BME280;11994;51.038;16.974;2023-04-15T03:18:46;98890.14;;;10.27;100.00
23635;BME280;11994;51.038;16.974;2023-04-15T03:21:11;98887.66;;;10.24;100.00
23635;BME280;11994;51.038;16.974;2023-04-15T03:23:36;98892.19;;;10.20;100.00
23635;BME280;11994;51.038;16.974;2023-04-15T03:26:02;98892.41;;;10.16;100.00
23635;BME280;11994;51.038;16.974;2023-04-15T03:28:27;98894.09;;;10.09;100.00
23635;BME280;11994;51.038;16.974;2023-04-15T03:30:53;98899.15;;;10.05;100.00
23635;BME280;11994;51.038;16.974;2023-04-15T03:33:18;98901.64;;;9.99;100.00
23635;BME280;11994;51.038;16.974;2023-04-15T03:35:44;98903.42;;;9.94;100.00
23635;BME280;11994;51.038;16.974;2023-04-15T03:38:09;98906.60;;;9.89;100.00
23635;BME280;11994;51.038;16.974;2023-04-15T03:40:35;98905.71;;;9.86;100.00
23635;BME280;11994;51.038;16.974;2023-04-15T03:43:00;98904.20;;;9.84;100.00
23635;BME280;11994;51.038;16.974;2023-04-15T03:45:26;98913.55;;;9.82;100.00
23635;BME280;11994;51.038;16.974;2023-04-15T03:47:51;98925.26;;;9.78;100.00
23635;BME280;11994;51.038;16.974;2023-04-15T03:50:16;98931.08;;;9.72;100.00
23635;BME280;11994;51.038;16.974;2023-04-15T03:52:41;98929.25;;;9.65;99.99
23635;BME280;11994;51.038;16.974;2023-04-15T03:55:07;98936.55;;;9.57;99.89
23635;BME280;11994;51.038;16.974;2023-04-15T03:57:32;98942.19;;;9.52;99.42
23635;BME280;11994;51.038;16.974;2023-04-15T04:00:02;98945.52;;;9.47;99.01
23635;BME280;11994;51.038;16.974;2023-04-15T04:02:27;98948.17;;;9.42;98.65
23635;BME280;11994;51.038;16.974;2023-04-15T04:04:52;98953.68;;;9.35;98.63
23635;BME280;11994;51.038;16.974;2023-04-15T04:07:17;98958.97;;;9.29;98.48
23635;BME280;11994;51.038;16.974;2023-04-15T04:09:43;98959.39;;;9.23;98.33
23635;BME280;11994;51.038;16.974;2023-04-15T04:12:08;98957.83;;;9.18;98.32
23635;BME280;11994;51.038;16.974;2023-04-15T04:14:33;98956.21;;;9.15;98.17
23635;BME280;11994;51.038;16.974;2023-04-15T04:16:58;98967.96;;;9.13;98.07
23635;BME280;11994;51.038;16.974;2023-04-15T04:19:24;98974.70;;;9.10;97.92
23635;BME280;11994;51.038;16.974;2023-04-15T04:21:49;98979.88;;;9.07;97.83
23635;BME280;11994;51.038;16.974;2023-04-15T04:24:15;98981.71;;;9.05;97.79
23635;BME280;11994;51.038;16.974;2023-04-15T04:26:40;98984.63;;;9.01;97.73
23635;BME280;11994;51.038;16.974;2023-04-15T04:29:05;98985.02;;;8.96;97.70
23635;BME280;11994;51.038;16.974;2023-04-15T04:31:31;98987.83;;;8.91;97.61
23635;BME280;11994;51.038;16.974;2023-04-15T04:33:56;98994.58;;;8.87;97.44
23635;BME280;11994;51.038;16.974;2023-04-15T04:36:21;98997.33;;;8.83;97.31
23635;BME280;11994;51.038;16.974;2023-04-15T04:38:46;99006.20;;;8.79;97.04
23635;BME280;11994;51.038;16.974;2023-04-15T04:41:12;99008.30;;;8.74;96.80
23635;BME280;11994;51.038;16.974;2023-04-15T04:43:37;99009.38;;;8.68;96.79
23635;BME280;11994;51.038;16.974;2023-04-15T04:46:02;99016.64;;;8.65;96.56
23635;BME280;11994;51.038;16.974;2023-04-15T04:48:27;99022.01;;;8.61;96.16
23635;BME280;11994;51.038;16.974;2023-04-15T04:50:53;99028.55;;;8.58;95.93
23635;BME280;11994;51.038;16.974;2023-04-15T04:53:18;99032.19;;;8.59;95.83
23635;BME280;11994;51.038;16.974;2023-04-15T04:55:43;99030.90;;;8.56;95.43
23635;BME280;11994;51.038;16.974;2023-04-15T04:58:08;99027.19;;;8.52;95.28
23635;BME280;11994;51.038;16.974;2023-04-15T05:00:34;99029.73;;;8.49;95.16
23635;BME280;11994;51.038;16.974;2023-04-15T05:03:01;99032.44;;;8.47;94.82
23635;BME280;11994;51.038;16.974;2023-04-15T05:05:26;99033.48;;;8.42;94.39
23635;BME280;11994;51.038;16.974;2023-04-15T05:07:51;99034.60;;;8.40;94.11
23635;BME280;11994;51.038;16.974;2023-04-15T05:10:20;99038.84;;;8.38;94.12
23635;BME280;11994;51.038;16.974;2023-04-15T05:12:45;99037.43;;;8.38;94.33
23635;BME280;11994;51.038;16.974;2023-04-15T05:15:11;99040.90;;;8.39;94.33
23635;BME280;11994;51.038;16.974;2023-04-15T05:17:36;99045.73;;;8.40;94.53
23635;BME280;11994;51.038;16.974;2023-04-15T05:20:02;99049.39;;;8.40;94.48
23635;BME280;11994;51.038;16.974;2023-04-15T05:22:27;99052.16;;;8.40;94.37
23635;BME280;11994;51.038;16.974;2023-04-15T05:24:53;99050.67;;;8.38;94.34
23635;BME280;11994;51.038;16.974;2023-04-15T05:27:18;99045.73;;;8.35;94.30
23635;BME280;11994;51.038;16.974;2023-04-15T05:29:43;99045.88;;;8.36;94.33
23635;BME280;11994;51.038;16.974;2023-04-15T05:32:09;99046.13;;;8.39;94.57
23635;BME280;11994;51.038;16.974;2023-04-15T05:34:34;99047.58;;;8.42;94.64
23635;BME280;11994;51.038;16.974;2023-04-15T05:37:00;99053.70;;;8.47;94.73
23635;BME280;11994;51.038;16.974;2023-04-15T05:39:25;99058.49;;;8.49;94.54
23635;BME280;11994;51.038;16.974;2023-04-15T05:41:50;99066.02;;;8.48;94.03
23635;BME280;11994;51.038;16.974;2023-04-15T05:44:16;99071.11;;;8.47;93.64
23635;BME280;11994;51.038;16.974;2023-04-15T05:46:41;99068.71;;;8.46;93.64
23635;BME280;11994;51.038;16.974;2023-04-15T05:49:07;99068.95;;;8.43;93.18
23635;BME280;11994;51.038;16.974;2023-04-15T05:51:32;99077.95;;;8.40;92.79
23635;BME280;11994;51.038;16.974;2023-04-15T05:53:57;99077.10;;;8.40;92.47
23635;BME280;11994;51.038;16.974;2023-04-15T05:56:23;99076.95;;;8.39;92.04
23635;BME280;11994;51.038;16.974;2023-04-15T05:58:50;99077.14;;;8.39;91.78
23635;BME280;11994;51.038;16.974;2023-04-15T06:01:16;99081.16;;;8.38;91.41
23635;BME280;11994;51.038;16.974;2023-04-15T06:03:41;99080.80;;;8.39;91.61
23635;BME280;11994;51.038;16.974;2023-04-15T06:06:06;99091.77;;;8.39;90.70
23635;BME280;11994;51.038;16.974;2023-04-15T06:08:32;99095.27;;;8.38;90.45
23635;BME280;11994;51.038;16.974;2023-04-15T06:10:57;99096.45;;;8.40;90.47
23635;BME280;11994;51.038;16.974;2023-04-15T06:13:22;99100.39;;;8.42;90.61
23635;BME280;11994;51.038;16.974;2023-04-15T06:15:48;99099.95;;;8.45;90.32
23635;BME280;11994;51.038;16.974;2023-04-15T06:18:13;99096.10;;;8.44;89.62
23635;BME280;11994;51.038;16.974;2023-04-15T06:20:38;99102.88;;;8.45;89.79
23635;BME280;11994;51.038;16.974;2023-04-15T06:23:04;99107.16;;;8.48;89.56
23635;BME280;11994;51.038;16.974;2023-04-15T06:25:29;99112.04;;;8.48;88.83
23635;BME280;11994;51.038;16.974;2023-04-15T06:27:54;99119.13;;;8.49;88.91
23635;BME280;11994;51.038;16.974;2023-04-15T06:30:20;99119.86;;;8.53;89.24
23635;BME280;11994;51.038;16.974;2023-04-15T06:32:45;99117.74;;;8.59;88.78
23635;BME280;11994;51.038;16.974;2023-04-15T06:35:11;99118.77;;;8.60;88.84
23635;BME280;11994;51.038;16.974;2023-04-15T06:37:36;99122.15;;;8.62;89.39
23635;BME280;11994;51.038;16.974;2023-04-15T06:40:01;99120.27;;;8.67;89.17
23635;BME280;11994;51.038;16.974;2023-04-15T06:42:29;99118.41;;;8.71;89.21
23635;BME280;11994;51.038;16.974;2023-04-15T06:44:54;99120.95;;;8.73;88.71
23635;BME280;11994;51.038;16.974;2023-04-15T06:47:20;99122.99;;;8.74;87.91
23635;BME280;11994;51.038;16.974;2023-04-15T06:49:45;99128.14;;;8.76;88.27
23635;BME280;11994;51.038;16.974;2023-04-15T06:52:10;99129.92;;;8.80;88.00
23635;BME280;11994;51.038;16.974;2023-04-15T06:54:36;99130.64;;;8.85;88.43
23635;BME280;11994;51.038;16.974;2023-04-15T06:57:02;99135.48;;;8.91;88.30
23635;BME280;11994;51.038;16.974;2023-04-15T06:59:27;99138.27;;;8.96;87.98
23635;BME280;11994;51.038;16.974;2023-04-15T07:01:52;99139.20;;;8.99;87.65
23635;BME280;11994;51.038;16.974;2023-04-15T07:04:18;99140.07;;;9.04;88.04
23635;BME280;11994;51.038;16.974;2023-04-15T07:06:44;99140.17;;;9.11;88.07
23635;BME280;11994;51.038;16.974;2023-04-15T07:09:10;99142.11;;;9.16;87.84
23635;BME280;11994;51.038;16.974;2023-04-15T07:11:35;99143.05;;;9.24;87.85
23635;BME280;11994;51.038;16.974;2023-04-15T07:14:00;99149.80;;;9.30;87.82
23635;BME280;11994;51.038;16.974;2023-04-15T07:16:26;99152.67;;;9.37;87.26
23635;BME280;11994;51.038;16.974;2023-04-15T07:18:51;99152.10;;;9.39;86.61
23635;BME280;11994;51.038;16.974;2023-04-15T07:21:16;99151.56;;;9.39;86.56
23635;BME280;11994;51.038;16.974;2023-04-15T07:23:42;99149.63;;;9.40;86.24
23635;BME280;11994;51.038;16.974;2023-04-15T07:26:07;99147.88;;;9.40;86.28
23635;BME280;11994;51.038;16.974;2023-04-15T07:28:33;99152.93;;;9.40;86.25
23635;BME280;11994;51.038;16.974;2023-04-15T07:30:58;99155.17;;;9.40;85.92
23635;BME280;11994;51.038;16.974;2023-04-15T07:33:23;99161.90;;;9.43;86.19
23635;BME280;11994;51.038;16.974;2023-04-15T07:35:48;99165.24;;;9.47;86.34
23635;BME280;11994;51.038;16.974;2023-04-15T07:38:14;99169.37;;;9.58;86.42
23635;BME280;11994;51.038;16.974;2023-04-15T07:40:39;99171.88;;;9.66;85.52
23635;BME280;11994;51.038;16.974;2023-04-15T07:43:05;99175.08;;;9.69;85.47
23635;BME280;11994;51.038;16.974;2023-04-15T07:45:30;99177.26;;;9.76;85.82
23635;BME280;11994;51.038;16.974;2023-04-15T07:47:56;99170.37;;;9.83;85.09
23635;BME280;11994;51.038;16.974;2023-04-15T07:50:21;99169.85;;;9.87;85.13
23635;BME280;11994;51.038;16.974;2023-04-15T07:52:47;99174.91;;;9.92;84.79
23635;BME280;11994;51.038;16.974;2023-04-15T07:55:13;99176.27;;;9.93;84.23
23635;BME280;11994;51.038;16.974;2023-04-15T07:57:38;99172.83;;;9.96;84.68
23635;BME280;11994;51.038;16.974;2023-04-15T08:00:04;99172.65;;;10.01;84.65
23635;BME280;11994;51.038;16.974;2023-04-15T08:02:29;99169.54;;;10.05;84.02
23635;BME280;11994;51.038;16.974;2023-04-15T08:04:55;99170.75;;;10.10;84.01
23635;BME280;11994;51.038;16.974;2023-04-15T08:07:21;99171.42;;;10.20;84.06
23635;BME280;11994;51.038;16.974;2023-04-15T08:09:47;99174.94;;;10.29;83.81
23635;BME280;11994;51.038;16.974;2023-04-15T08:12:12;99176.33;;;10.37;84.22
23635;BME280;11994;51.038;16.974;2023-04-15T08:14:38;99178.05;;;10.46;83.96
23635;BME280;11994;51.038;16.974;2023-04-15T08:17:03;99181.76;;;10.50;83.12
23635;BME280;11994;51.038;16.974;2023-04-15T08:19:28;99181.21;;;10.50;81.87
23635;BME280;11994;51.038;16.974;2023-04-15T08:21:54;99191.13;;;10.43;80.35
23635;BME280;11994;51.038;16.974;2023-04-15T08:24:20;99191.91;;;10.41;81.33
23635;BME280;11994;51.038;16.974;2023-04-15T08:26:45;99197.73;;;10.44;80.58
23635;BME280;11994;51.038;16.974;2023-04-15T08:29:11;99202.20;;;10.50;80.31
23635;BME280;11994;51.038;16.974;2023-04-15T08:31:36;99199.98;;;10.66;80.49
23635;BME280;11994;51.038;16.974;2023-04-15T08:34:01;99201.41;;;10.87;81.33
23635;BME280;11994;51.038;16.974;2023-04-15T08:36:27;99204.33;;;11.13;82.28
23635;BME280;11994;51.038;16.974;2023-04-15T08:38:52;99203.52;;;11.36;82.15
23635;BME280;11994;51.038;16.974;2023-04-15T08:41:21;99205.38;;;11.57;82.04
23635;BME280;11994;51.038;16.974;2023-04-15T08:43:57;99204.77;;;11.76;79.36
23635;BME280;11994;51.038;16.974;2023-04-15T08:46:25;99210.48;;;11.73;79.61
23635;BME280;11994;51.038;16.974;2023-04-15T08:48:50;99212.61;;;11.69;78.19
23635;BME280;11994;51.038;16.974;2023-04-15T08:51:16;99214.33;;;11.57;77.22
23635;BME280;11994;51.038;16.974;2023-04-15T08:53:43;99216.12;;;11.52;77.61
23635;BME280;11994;51.038;16.974;2023-04-15T08:56:08;99222.00;;;11.50;77.49
23635;BME280;11994;51.038;16.974;2023-04-15T08:58:37;99227.10;;;11.45;78.13
23635;BME280;11994;51.038;16.974;2023-04-15T09:01:02;99229.16;;;11.46;78.72
23635;BME280;11994;51.038;16.974;2023-04-15T09:03:27;99233.10;;;11.48;77.65
23635;BME280;11994;51.038;16.974;2023-04-15T09:05:54;99234.58;;;11.46;78.00
23635;BME280;11994;51.038;16.974;2023-04-15T09:08:20;99235.08;;;11.47;78.30
23635;BME280;11994;51.038;16.974;2023-04-15T09:10:46;99231.08;;;11.46;78.37
23635;BME280;11994;51.038;16.974;2023-04-15T09:13:11;99227.42;;;11.50;78.84
23635;BME280;11994;51.038;16.974;2023-04-15T09:15:37;99228.41;;;11.56;78.34
23635;BME280;11994;51.038;16.974;2023-04-15T09:18:03;99222.42;;;11.68;78.57
23635;BME280;11994;51.038;16.974;2023-04-15T09:20:28;99223.41;;;11.82;78.89
23635;BME280;11994;51.038;16.974;2023-04-15T09:22:53;99223.86;;;11.87;79.05
23635;BME280;11994;51.038;16.974;2023-04-15T09:27:51;99227.74;;;11.98;77.84
23635;BME280;11994;51.038;16.974;2023-04-15T09:30:17;99225.91;;;12.07;77.91
23635;BME280;11994;51.038;16.974;2023-04-15T09:32:49;99227.65;;;12.15;75.60
23635;BME280;11994;51.038;16.974;2023-04-15T09:35:15;99231.97;;;12.09;75.44
23635;BME280;11994;51.038;16.974;2023-04-15T09:37:41;99231.81;;;12.04;75.42
23635;BME280;11994;51.038;16.974;2023-04-15T09:40:06;99238.30;;;12.02;75.13
23635;BME280;11994;51.038;16.974;2023-04-15T09:42:34;99234.73;;;11.98;75.30
23635;BME280;11994;51.038;16.974;2023-04-15T09:45:09;99231.80;;;11.97;75.15
23635;BME280;11994;51.038;16.974;2023-04-15T09:47:35;99237.57;;;12.05;71.95
23635;BME280;11994;51.038;16.974;2023-04-15T09:50:01;99237.59;;;12.16;71.03
23635;BME280;11994;51.038;16.974;2023-04-15T09:52:26;99243.08;;;12.34;72.16
23635;BME280;11994;51.038;16.974;2023-04-15T09:54:53;99240.73;;;12.50;71.37
23635;BME280;11994;51.038;16.974;2023-04-15T09:57:21;99243.60;;;12.56;70.64
23635;BME280;11994;51.038;16.974;2023-04-15T09:59:47;99243.65;;;12.66;70.77
23635;BME280;11994;51.038;16.974;2023-04-15T10:02:13;99249.91;;;12.82;69.49
23635;BME280;11994;51.038;16.974;2023-04-15T10:04:39;99247.19;;;12.83;69.25
23635;BME280;11994;51.038;16.974;2023-04-15T10:07:04;99244.11;;;12.85;68.55
23635;BME280;11994;51.038;16.974;2023-04-15T10:09:30;99248.64;;;12.82;67.69
23635;BME280;11994;51.038;16.974;2023-04-15T10:11:57;99251.61;;;12.83;67.53
23635;BME280;11994;51.038;16.974;2023-04-15T10:14:23;99251.02;;;12.66;66.45
23635;BME280;11994;51.038;16.974;2023-04-15T10:16:49;99248.10;;;12.50;67.17
23635;BME280;11994;51.038;16.974;2023-04-15T10:19:15;99252.67;;;12.46;67.37
23635;BME280;11994;51.038;16.974;2023-04-15T10:21:43;99254.95;;;12.50;66.20
23635;BME280;11994;51.038;16.974;2023-04-15T10:24:09;99249.58;;;12.48;67.05
23635;BME280;11994;51.038;16.974;2023-04-15T10:26:34;99248.80;;;12.50;67.80
23635;BME280;11994;51.038;16.974;2023-04-15T10:29:00;99247.19;;;12.54;67.50
23635;BME280;11994;51.038;16.974;2023-04-15T10:31:26;99247.86;;;12.59;69.02
23635;BME280;11994;51.038;16.974;2023-04-15T10:33:52;99250.84;;;12.70;69.76
23635;BME280;11994;51.038;16.974;2023-04-15T10:36:18;99250.92;;;12.86;69.96
23635;BME280;11994;51.038;16.974;2023-04-15T10:38:44;99254.98;;;13.04;69.49
23635;BME280;11994;51.038;16.974;2023-04-15T10:41:18;99255.33;;;13.15;68.28
23635;BME280;11994;51.038;16.974;2023-04-15T10:46:12;99255.98;;;12.94;68.43
23635;BME280;11994;51.038;16.974;2023-04-15T10:48:37;99255.65;;;12.90;68.19
23635;BME280;11994;51.038;16.974;2023-04-15T10:51:03;99258.42;;;12.87;69.12
23635;BME280;11994;51.038;16.974;2023-04-15T10:53:29;99260.68;;;12.87;68.87
23635;BME280;11994;51.038;16.974;2023-04-15T10:55:55;99261.16;;;12.88;69.77
23635;BME280;11994;51.038;16.974;2023-04-15T10:58:24;99262.84;;;12.94;69.49
23635;BME280;11994;51.038;16.974;2023-04-15T11:00:51;99262.64;;;13.09;70.41
23635;BME280;11994;51.038;16.974;2023-04-15T11:03:20;99264.32;;;13.28;70.32
23635;BME280;11994;51.038;16.974;2023-04-15T11:05:58;99270.00;;;13.37;69.02
23635;BME280;11994;51.038;16.974;2023-04-15T11:08:51;99272.27;;;13.41;68.15
23635;BME280;11994;51.038;16.974;2023-04-15T11:11:08;99275.89;;;13.42;67.68
23635;BME280;11994;51.038;16.974;2023-04-15T11:13:34;99274.72;;;13.38;67.17
23635;BME280;11994;51.038;16.974;2023-04-15T11:16:00;99278.63;;;13.37;67.49
23635;BME280;11994;51.038;16.974;2023-04-15T11:18:27;99283.30;;;13.38;67.47
23635;BME280;11994;51.038;16.974;2023-04-15T11:20:57;99283.59;;;13.36;66.94
23635;BME280;11994;51.038;16.974;2023-04-15T11:23:39;99282.54;;;13.33;67.05
23635;BME280;11994;51.038;16.974;2023-04-15T11:26:08;99276.09;;;13.35;67.52
23635;BME280;11994;51.038;16.974;2023-04-15T11:28:35;99277.96;;;13.39;67.51
23635;BME280;11994;51.038;16.974;2023-04-15T11:31:05;99284.29;;;13.47;65.83
23635;BME280;11994;51.038;16.974;2023-04-15T11:33:31;99281.88;;;13.52;65.72
23635;BME280;11994;51.038;16.974;2023-04-15T11:35:56;99284.17;;;13.59;65.92
23635;BME280;11994;51.038;16.974;2023-04-15T11:38:21;99286.42;;;13.63;64.31
23635;BME280;11994;51.038;16.974;2023-04-15T11:40:46;99285.45;;;13.55;64.22
23635;BME280;11994;51.038;16.974;2023-04-15T11:45:46;99288.33;;;13.57;65.10
23635;BME280;11994;51.038;16.974;2023-04-15T11:48:12;99286.48;;;13.66;62.85
23635;BME280;11994;51.038;16.974;2023-04-15T11:50:38;99289.86;;;13.58;62.01
23635;BME280;11994;51.038;16.974;2023-04-15T11:53:07;99289.02;;;13.64;62.22
23635;BME280;11994;51.038;16.974;2023-04-15T11:55:49;99289.14;;;13.65;60.62
23635;BME280;11994;51.038;16.974;2023-04-15T12:00:51;99296.31;;;13.48;61.51
23635;BME280;11994;51.038;16.974;2023-04-15T12:03:27;99303.38;;;13.54;63.22
23635;BME280;11994;51.038;16.974;2023-04-15T12:11:26;99303.98;;;13.74;64.18
23635;BME280;11994;51.038;16.974;2023-04-15T12:13:56;99304.77;;;13.82;63.92
23635;BME280;11994;51.038;16.974;2023-04-15T12:16:22;99305.33;;;13.85;62.30
23635;BME280;11994;51.038;16.974;2023-04-15T12:18:51;99310.67;;;13.84;62.30
23635;BME280;11994;51.038;16.974;2023-04-15T12:21:17;99313.64;;;13.80;62.16
23635;BME280;11994;51.038;16.974;2023-04-15T12:23:50;99313.11;;;13.81;63.07
23635;BME280;11994;51.038;16.974;2023-04-15T12:26:16;99315.81;;;13.86;63.23
23635;BME280;11994;51.038;16.974;2023-04-15T12:28:42;99316.74;;;13.92;63.65
23635;BME280;11994;51.038;16.974;2023-04-15T12:31:08;99316.33;;;13.93;63.67
23635;BME280;11994;51.038;16.974;2023-04-15T12:33:34;99317.85;;;13.94;64.15
23635;BME280;11994;51.038;16.974;2023-04-15T12:35:59;99316.36;;;13.99;64.27
23635;BME280;11994;51.038;16.974;2023-04-15T12:38:24;99318.52;;;14.08;64.30
23635;BME280;11994;51.038;16.974;2023-04-15T12:40:50;99316.92;;;14.12;64.57
23635;BME280;11994;51.038;16.974;2023-04-15T12:43:15;99322.48;;;14.24;64.51
23635;BME280;11994;51.038;16.974;2023-04-15T12:45:41;99321.63;;;14.36;64.17
23635;BME280;11994;51.038;16.974;2023-04-15T12:48:06;99324.35;;;14.45;63.58
23635;BME280;11994;51.038;16.974;2023-04-15T12:50:33;99322.24;;;14.51;62.97
23635;BME280;11994;51.038;16.974;2023-04-15T12:52:58;99318.50;;;14.49;62.47
23635;BME280;11994;51.038;16.974;2023-04-15T12:55:23;99319.97;;;14.44;62.96
23635;BME280;11994;51.038;16.974;2023-04-15T12:57:49;99317.41;;;14.49;63.18
23635;BME280;11994;51.038;16.974;2023-04-15T13:00:14;99315.06;;;14.50;63.15